Time;durP1;ratioP1;P1;durP2;ratioP2;P2;SDS_P1;SDS_P2;PMS_P1;PMS_P2;Temp;Humidity;BMP_temperature;BMP_pressure;BME280_temperature;BME280_humidity;BME280_pressure;Samples;Min_cycle;Max_cycle;Signal;HPM_P1;HPM_P2
2022/11/02 00:00:53;;;;;;;187.73;10.77;;;6.60;99.90;;;;;;4987713;28;20026;-71
2022/11/02 00:03:19;;;;;;;26.58;7.55;;;6.60;99.90;;;;;;4989203;28;20035;-72
2022/11/02 00:05:45;;;;;;;12.70;6.80;;;6.50;99.90;;;;;;4988957;28;20652;-71
2022/11/02 00:08:10;;;;;;;12.10;6.10;;;6.50;99.90;;;;;;4989910;28;20026;-71
2022/11/02 00:10:36;;;;;;;18.90;6.80;;;6.50;99.90;;;;;;4989572;28;20030;-71
2022/11/02 00:13:01;;;;;;;10.18;6.00;;;6.40;99.90;;;;;;4987887;28;20030;-70
2022/11/02 00:15:30;;;;;;;15.10;5.82;;;6.40;99.90;;;;;;4989156;28;20044;-70
2022/11/02 00:18:08;;;;;;;12.57;5.93;;;6.30;99.90;;;;;;4988529;28;20149;-70
2022/11/02 00:20:36;;;;;;;16.45;6.78;;;6.10;99.90;;;;;;4986937;28;20088;-71
2022/11/02 00:23:02;;;;;;;12.02;6.75;;;6.10;99.90;;;;;;4988001;28;20049;-71
2022/11/02 00:25:29;;;;;;;14.20;6.85;;;6.10;99.90;;;;;;4990076;28;20033;-71
2022/11/02 00:27:54;;;;;;;13.55;6.75;;;6.00;99.90;;;;;;4988669;28;20148;-71
2022/11/02 00:30:20;;;;;;;15.50;6.88;;;6.10;99.90;;;;;;4988682;28;20467;-70
2022/11/02 00:32:46;;;;;;;18.02;6.70;;;6.10;99.90;;;;;;4976047;28;20046;-71
2022/11/02 00:35:11;;;;;;;16.85;7.20;;;6.10;99.90;;;;;;4989191;28;20475;-70
2022/11/02 00:37:37;;;;;;;14.27;7.07;;;6.10;99.90;;;;;;4989189;28;20026;-71
2022/11/02 00:40:04;;;;;;;13.75;6.22;;;6.10;99.90;;;;;;4988573;28;20038;-71
2022/11/02 00:42:30;;;;;;;13.10;6.28;;;6.10;99.90;;;;;;4988185;28;20038;-71
2022/11/02 00:44:55;;;;;;;12.80;6.30;;;6.10;99.90;;;;;;5007224;28;20038;-70
2022/11/02 00:47:21;;;;;;;13.75;7.05;;;6.10;99.90;;;;;;4987756;28;20391;-71
2022/11/02 00:49:46;;;;;;;12.38;6.85;;;6.10;99.90;;;;;;4986925;28;20038;-70
2022/11/02 00:52:12;;;;;;;141.07;9.30;;;6.20;99.90;;;;;;4988585;28;20046;-70
2022/11/02 00:54:38;;;;;;;12.70;6.28;;;6.10;99.90;;;;;;4988130;28;20495;-70
2022/11/02 00:57:04;;;;;;;11.82;6.38;;;6.00;99.90;;;;;;4988916;28;20038;-70
2022/11/02 00:59:29;;;;;;;19.08;6.30;;;6.00;99.90;;;;;;4988536;28;20441;-70
2022/11/02 01:01:55;;;;;;;37.33;6.82;;;6.00;99.90;;;;;;4987700;28;20084;-71
2022/11/02 01:04:20;;;;;;;25.40;6.35;;;6.00;99.90;;;;;;4996041;28;20117;-71
2022/11/02 01:06:46;;;;;;;13.00;6.22;;;6.00;99.90;;;;;;4987796;28;20395;-71
2022/11/02 01:09:14;;;;;;;11.85;6.05;;;6.00;99.90;;;;;;4988194;28;20034;-70
2022/11/02 01:11:40;;;;;;;13.88;6.38;;;6.00;99.90;;;;;;4994096;28;20042;-71
2022/11/02 01:14:06;;;;;;;11.50;6.32;;;5.90;99.90;;;;;;4987483;28;20038;-71
2022/11/02 01:16:32;;;;;;;14.43;7.15;;;6.00;99.90;;;;;;4989030;28;20030;-71
2022/11/02 01:18:58;;;;;;;14.57;7.00;;;6.00;99.90;;;;;;4988378;28;20037;-71
2022/11/02 01:21:24;;;;;;;12.07;6.60;;;6.00;99.90;;;;;;4988558;28;20349;-71
2022/11/02 01:23:51;;;;;;;13.80;6.95;;;5.90;99.90;;;;;;4986536;28;20092;-71
2022/11/02 01:26:16;;;;;;;13.80;6.72;;;5.90;99.90;;;;;;4988438;28;20049;-71
2022/11/02 01:28:42;;;;;;;12.10;6.13;;;6.00;99.90;;;;;;4987830;28;20038;-71
2022/11/02 01:31:09;;;;;;;14.18;6.60;;;6.00;99.90;;;;;;4986689;28;20060;-71
2022/11/02 01:33:36;;;;;;;12.95;6.72;;;6.00;99.90;;;;;;4987692;28;20042;-71
2022/11/02 01:36:03;;;;;;;12.05;6.07;;;6.00;99.90;;;;;;4988300;28;20117;-70
2022/11/02 01:38:30;;;;;;;13.35;6.43;;;6.00;99.90;;;;;;4988326;28;20042;-70
2022/11/02 01:40:56;;;;;;;13.02;6.13;;;5.90;99.90;;;;;;4986312;28;20033;-71
2022/11/02 01:43:28;;;;;;;11.68;5.85;;;5.90;99.90;;;;;;4989239;28;20050;-71
2022/11/02 01:46:10;;;;;;;13.60;6.47;;;5.80;99.90;;;;;;4990789;28;20105;-71
2022/11/02 01:48:41;;;;;;;14.98;5.47;;;5.70;99.90;;;;;;4992495;28;20456;-72
2022/11/02 01:51:17;;;;;;;10.60;5.25;;;5.70;99.90;;;;;;4990922;28;20027;-71
2022/11/02 01:53:46;;;;;;;12.05;6.03;;;5.70;99.90;;;;;;4995238;28;20486;-71
2022/11/02 01:56:15;;;;;;;12.93;5.90;;;5.70;99.90;;;;;;4994542;28;20030;-71
2022/11/02 01:58:44;;;;;;;10.70;5.95;;;5.60;99.90;;;;;;4991614;28;20085;-71
2022/11/02 02:01:10;;;;;;;11.45;6.00;;;5.70;99.90;;;;;;4988756;28;20034;-71
2022/11/02 02:03:36;;;;;;;13.75;6.10;;;5.70;99.90;;;;;;4990832;28;20057;-70
2022/11/02 02:06:07;;;;;;;13.15;6.25;;;5.70;99.90;;;;;;4990809;28;20467;-71
2022/11/02 02:08:37;;;;;;;10.50;5.45;;;5.70;99.90;;;;;;4990356;28;20071;-70
2022/11/02 02:11:28;;;;;;;12.20;5.90;;;5.60;99.90;;;;;;4992711;28;20054;-71
2022/11/02 02:14:08;;;;;;;11.10;5.80;;;5.60;99.90;;;;;;4988131;28;20046;-71
2022/11/02 02:17:04;;;;;;;13.55;6.00;;;5.70;99.90;;;;;;4973180;28;20126;-71
2022/11/02 02:19:50;;;;;;;10.93;5.80;;;5.70;99.90;;;;;;4976374;28;20153;-71
2022/11/02 02:22:34;;;;;;;16.95;5.45;;;5.60;99.90;;;;;;4989281;28;20420;-71
2022/11/02 02:25:12;;;;;;;11.25;5.72;;;5.70;99.90;;;;;;4991070;28;20403;-71
2022/11/02 02:28:03;;;;;;;15.90;5.20;;;5.70;99.90;;;;;;4989606;28;20026;-70
2022/11/02 02:30:36;;;;;;;10.95;5.40;;;5.70;99.90;;;;;;4991365;28;20105;-71
2022/11/02 02:33:11;;;;;;;10.20;5.78;;;5.70;99.90;;;;;;4992497;28;20042;-70
2022/11/02 02:35:50;;;;;;;9.55;5.20;;;5.70;99.90;;;;;;4990930;28;20027;-72
2022/11/02 02:38:25;;;;;;;10.75;5.70;;;5.70;99.90;;;;;;4991298;28;20049;-70
2022/11/02 02:41:18;;;;;;;10.07;5.45;;;5.70;99.90;;;;;;4990538;28;20034;-71
2022/11/02 02:43:50;;;;;;;11.65;5.30;;;5.70;99.90;;;;;;4984165;28;20039;-71
2022/11/02 02:46:21;;;;;;;10.73;5.03;;;5.70;99.90;;;;;;4991635;28;20065;-71
2022/11/02 02:48:49;;;;;;;10.68;5.63;;;5.70;99.90;;;;;;4992065;28;20383;-71
2022/11/02 02:51:28;;;;;;;14.07;6.10;;;5.70;99.90;;;;;;4991691;28;20038;-71
2022/11/02 02:54:03;;;;;;;13.93;6.10;;;5.70;99.90;;;;;;4990404;28;20070;-70
2022/11/02 02:56:34;;;;;;;11.63;5.65;;;5.70;99.90;;;;;;4990539;28;20034;-71
2022/11/02 02:59:07;;;;;;;12.07;5.50;;;5.70;99.90;;;;;;4987484;28;20053;-70
2022/11/02 03:01:34;;;;;;;13.40;5.35;;;5.70;99.90;;;;;;4992217;28;20038;-70
2022/11/02 03:03:59;;;;;;;11.73;4.70;;;5.80;99.90;;;;;;4989039;28;20034;-71
2022/11/02 03:06:31;;;;;;;10.75;5.47;;;5.80;99.90;;;;;;4990439;28;20506;-71
2022/11/02 03:09:18;;;;;;;12.32;5.28;;;5.80;99.90;;;;;;4989953;28;20037;-70
2022/11/02 03:12:01;;;;;;;12.48;5.85;;;5.70;99.90;;;;;;4988696;28;20038;-70
2022/11/02 03:15:00;;;;;;;12.02;5.50;;;5.60;99.90;;;;;;4972601;28;20038;-71
2022/11/02 03:17:42;;;;;;;12.88;5.93;;;5.50;99.90;;;;;;4987247;28;20085;-70
2022/11/02 03:20:23;;;;;;;14.60;5.57;;;5.40;99.90;;;;;;4990440;28;20030;-70
2022/11/02 03:22:58;;;;;;;10.98;5.78;;;5.50;99.90;;;;;;4982001;28;20030;-71
2022/11/02 03:25:27;;;;;;;12.05;5.75;;;5.50;99.90;;;;;;4991628;28;20101;-70
2022/11/02 03:28:04;;;;;;;10.52;5.72;;;5.50;99.90;;;;;;4990444;28;20489;-70
2022/11/02 03:30:38;;;;;;;9.32;4.88;;;5.40;99.90;;;;;;4990337;28;20049;-70
2022/11/02 03:33:26;;;;;;;12.02;5.55;;;5.50;99.90;;;;;;4984757;28;20125;-70
2022/11/02 03:36:11;;;;;;;16.73;5.70;;;5.60;99.90;;;;;;4988313;28;20498;-70
2022/11/02 03:38:43;;;;;;;10.73;5.28;;;5.70;99.90;;;;;;4988983;28;20022;-70
2022/11/02 03:41:10;;;;;;;13.52;5.32;;;5.70;99.90;;;;;;4990978;28;20096;-70
2022/11/02 03:43:37;;;;;;;16.40;5.47;;;5.70;99.90;;;;;;4978909;28;20042;-69
2022/11/02 03:46:06;;;;;;;9.68;5.32;;;5.70;99.90;;;;;;4989664;28;20050;-71
2022/11/02 03:48:37;;;;;;;10.93;5.43;;;5.60;99.90;;;;;;4989521;28;20065;-70
2022/11/02 03:51:07;;;;;;;11.43;5.00;;;5.70;99.90;;;;;;4986009;28;20057;-70
2022/11/02 03:54:10;;;;;;;10.32;4.88;;;5.60;99.90;;;;;;4989959;28;20121;-70
2022/11/02 03:56:36;;;;;;;13.65;4.90;;;5.60;99.90;;;;;;4984808;28;20052;-70
2022/11/02 03:59:02;;;;;;;11.23;5.47;;;5.60;99.90;;;;;;4986639;28;20442;-69
2022/11/02 04:01:29;;;;;;;8.63;4.80;;;5.50;99.90;;;;;;4993344;28;20034;-69
2022/11/02 04:03:55;;;;;;;9.65;5.10;;;5.50;99.90;;;;;;4989802;28;20471;-70
2022/11/02 04:06:22;;;;;;;10.85;4.63;;;5.40;99.90;;;;;;4990037;28;20037;-69
2022/11/02 04:08:48;;;;;;;10.55;5.15;;;5.40;99.90;;;;;;4989810;28;20435;-70
2022/11/02 04:16:44;;;;;;;9.48;4.80;;;5.60;99.90;;;;;;4987194;28;20124;-69
2022/11/02 04:19:28;;;;;;;12.05;4.95;;;5.60;99.90;;;;;;4990003;28;20081;-70
2022/11/02 04:27:24;;;;;;;12.35;5.20;;;5.70;99.90;;;;;;4980289;28;20494;-70
2022/11/02 04:29:50;;;;;;;14.35;5.40;;;5.80;99.90;;;;;;4988613;28;20034;-70
2022/11/02 04:33:31;;;;;;;13.77;6.30;;;5.80;99.90;;;;;;4982814;28;20042;-70
2022/11/02 04:35:05;;;;;;;9.70;4.82;;;5.80;99.90;;;;;;4984479;28;20038;-70
2022/11/02 04:40:24;;;;;;;14.45;4.80;;;5.80;99.90;;;;;;4989894;28;20033;-70
2022/11/02 04:42:50;;;;;;;14.05;6.57;;;5.80;99.90;;;;;;5008137;28;20033;-70
2022/11/02 04:45:16;;;;;;;27.13;10.98;;;5.80;99.90;;;;;;4989498;28;20135;-69
2022/11/02 04:47:41;;;;;;;25.35;11.93;;;5.80;99.90;;;;;;4990037;28;20034;-69
2022/11/02 04:50:07;;;;;;;28.52;12.93;;;5.80;99.90;;;;;;4988858;28;20072;-69
2022/11/02 04:52:33;;;;;;;14.50;6.85;;;5.90;99.90;;;;;;5007377;28;20037;-70
2022/11/02 04:54:59;;;;;;;11.82;5.57;;;5.80;99.90;;;;;;4990990;28;20042;-70
2022/11/02 04:57:24;;;;;;;10.25;5.05;;;5.80;99.90;;;;;;4990108;28;20065;-70
2022/11/02 04:59:50;;;;;;;10.95;5.47;;;5.80;99.90;;;;;;4988433;28;20096;-70
2022/11/02 05:02:15;;;;;;;10.10;5.13;;;5.80;99.90;;;;;;4987719;28;20542;-69
2022/11/02 05:04:41;;;;;;;13.18;4.95;;;5.90;99.90;;;;;;4989676;28;20046;-69
2022/11/02 05:07:07;;;;;;;11.25;4.60;;;5.90;99.90;;;;;;4987579;28;20038;-70
2022/11/02 05:09:33;;;;;;;8.00;4.40;;;5.80;99.90;;;;;;4988753;28;20125;-70
2022/11/02 05:12:00;;;;;;;9.98;4.55;;;5.80;99.90;;;;;;4986954;28;20104;-70
2022/11/02 05:14:26;;;;;;;9.70;4.50;;;5.80;99.90;;;;;;4987144;28;20570;-70
2022/11/02 05:16:51;;;;;;;9.73;4.30;;;5.90;99.90;;;;;;4969575;28;20037;-70
2022/11/02 05:19:17;;;;;;;11.38;4.90;;;5.80;99.90;;;;;;4980848;28;20396;-70
2022/11/02 05:21:43;;;;;;;9.43;4.30;;;5.80;99.90;;;;;;4983910;28;20039;-70
2022/11/02 05:24:08;;;;;;;10.50;4.38;;;5.70;99.90;;;;;;4989190;28;20035;-70
2022/11/02 05:26:34;;;;;;;11.60;4.47;;;5.70;99.90;;;;;;4989996;28;20030;-70
2022/11/02 05:29:00;;;;;;;14.70;4.65;;;5.70;99.90;;;;;;4988910;28;20031;-69
2022/11/02 05:31:25;;;;;;;9.98;5.18;;;5.70;99.90;;;;;;4988609;28;20519;-69
2022/11/02 05:33:51;;;;;;;13.25;5.82;;;5.70;99.90;;;;;;4988691;28;20073;-70
2022/11/02 05:36:16;;;;;;;15.05;6.25;;;5.80;99.90;;;;;;4989528;28;20030;-70
2022/11/02 05:38:42;;;;;;;12.10;6.00;;;5.90;99.90;;;;;;4989699;28;20065;-70
2022/11/02 05:41:08;;;;;;;9.60;4.88;;;6.00;99.90;;;;;;4987902;28;20452;-70
2022/11/02 05:43:34;;;;;;;14.00;4.90;;;5.90;99.90;;;;;;4990091;28;20372;-70
2022/11/02 05:46:02;;;;;;;11.05;4.55;;;5.80;99.90;;;;;;4971137;28;20173;-69
2022/11/02 05:48:31;;;;;;;11.57;4.85;;;5.60;99.90;;;;;;4977147;28;20035;-69
2022/11/02 05:51:02;;;;;;;9.70;4.43;;;5.50;99.90;;;;;;4990177;28;20080;-70
2022/11/02 05:53:32;;;;;;;7.88;4.32;;;5.30;99.90;;;;;;5001169;28;20042;-69
2022/11/02 05:56:00;;;;;;;11.27;5.15;;;5.30;99.90;;;;;;4988649;28;20039;-69
2022/11/02 05:58:26;;;;;;;12.93;5.22;;;5.30;99.90;;;;;;4987633;28;20045;-70
2022/11/02 06:00:52;;;;;;;13.48;5.60;;;5.40;99.90;;;;;;4983316;28;20084;-69
2022/11/02 06:03:18;;;;;;;10.48;4.85;;;5.40;99.90;;;;;;4988351;28;20133;-70
2022/11/02 06:05:44;;;;;;;11.85;4.82;;;5.40;99.90;;;;;;4986867;28;20030;-71
2022/11/02 06:08:10;;;;;;;10.60;4.95;;;5.40;99.90;;;;;;4975469;28;20037;-68
2022/11/02 06:10:36;;;;;;;8.25;4.90;;;5.40;99.90;;;;;;4980241;28;21039;-68
2022/11/02 06:13:02;;;;;;;10.77;4.80;;;5.50;99.90;;;;;;4978932;28;20042;-68
2022/11/02 06:15:30;;;;;;;14.70;5.30;;;5.50;99.90;;;;;;4977339;28;20128;-69
2022/11/02 06:17:56;;;;;;;11.55;4.90;;;5.50;99.90;;;;;;4977087;28;20070;-68
2022/11/02 06:20:22;;;;;;;9.07;4.75;;;5.50;99.90;;;;;;4977804;28;20074;-68
2022/11/02 06:22:48;;;;;;;11.18;5.13;;;5.60;99.90;;;;;;4978362;28;20041;-71
2022/11/02 06:25:14;;;;;;;14.32;4.97;;;5.60;99.90;;;;;;4977621;28;20031;-70
2022/11/02 06:27:40;;;;;;;11.48;4.90;;;5.60;99.90;;;;;;4985599;28;20034;-69
2022/11/02 06:30:07;;;;;;;9.02;4.68;;;5.70;99.90;;;;;;4978297;28;20089;-69
2022/11/02 06:32:33;;;;;;;10.57;4.57;;;5.80;99.90;;;;;;4980212;28;20118;-67
2022/11/02 06:34:59;;;;;;;12.27;4.55;;;5.90;99.90;;;;;;4979835;28;20034;-69
2022/11/02 06:37:24;;;;;;;11.88;5.00;;;5.90;99.90;;;;;;4993449;28;20057;-71
2022/11/02 06:39:50;;;;;;;10.25;4.53;;;5.90;99.90;;;;;;4989854;28;20368;-71
2022/11/02 06:42:15;;;;;;;15.68;4.95;;;6.00;99.90;;;;;;4990649;28;20038;-68
2022/11/02 06:44:41;;;;;;;12.73;4.38;;;6.10;99.90;;;;;;4988033;28;20056;-69
2022/11/02 06:47:07;;;;;;;11.23;4.50;;;6.10;99.90;;;;;;4986829;28;20242;-69
2022/11/02 06:49:32;;;;;;;11.38;4.38;;;6.20;99.90;;;;;;4990008;28;20449;-68
2022/11/02 06:51:58;;;;;;;10.90;4.75;;;6.30;99.90;;;;;;4986610;28;20716;-65
2022/11/02 06:54:24;;;;;;;9.73;4.60;;;6.50;99.90;;;;;;4980184;28;20026;-66
2022/11/02 06:56:49;;;;;;;9.00;4.82;;;6.50;99.90;;;;;;4991314;28;20030;-67
2022/11/02 06:59:15;;;;;;;11.50;4.53;;;6.60;99.90;;;;;;4989809;28;20038;-66
2022/11/02 07:01:41;;;;;;;11.65;4.40;;;6.60;99.90;;;;;;5003124;28;20025;-66
2022/11/02 07:04:06;;;;;;;16.08;4.55;;;6.60;99.90;;;;;;4993637;28;20042;-65
2022/11/02 07:06:32;;;;;;;8.23;4.45;;;6.70;99.90;;;;;;4986699;28;20034;-64
2022/11/02 07:08:57;;;;;;;10.73;4.43;;;6.70;99.90;;;;;;4980485;28;20117;-66
2022/11/02 07:11:23;;;;;;;8.32;4.18;;;6.70;99.90;;;;;;4989234;28;20084;-66
2022/11/02 07:13:49;;;;;;;9.48;4.18;;;6.60;99.90;;;;;;4991404;28;20042;-67
2022/11/02 07:16:14;;;;;;;9.48;4.38;;;6.60;99.90;;;;;;4991245;28;20464;-66
2022/11/02 07:18:41;;;;;;;8.40;4.60;;;6.70;99.90;;;;;;4991553;28;20030;-65
2022/11/02 07:21:09;;;;;;;10.75;4.75;;;6.80;99.90;;;;;;4990283;28;20037;-65
2022/11/02 07:23:34;;;;;;;9.93;4.63;;;6.80;99.90;;;;;;4991369;28;20125;-66
2022/11/02 07:26:01;;;;;;;15.40;4.55;;;6.90;99.90;;;;;;4989713;28;20554;-65
2022/11/02 07:28:26;;;;;;;9.13;4.28;;;7.10;99.90;;;;;;4991932;28;20511;-65
2022/11/02 07:30:55;;;;;;;10.30;4.22;;;7.20;99.90;;;;;;4990439;28;20031;-68
2022/11/02 07:33:21;;;;;;;10.88;4.65;;;7.30;99.90;;;;;;4991348;28;20029;-65
2022/11/02 07:35:47;;;;;;;11.35;4.78;;;7.40;99.90;;;;;;4991662;28;20084;-65
2022/11/02 07:38:13;;;;;;;9.77;4.57;;;7.50;99.90;;;;;;4990890;28;20704;-66
2022/11/02 07:40:38;;;;;;;8.32;4.20;;;7.60;99.90;;;;;;4990742;28;20203;-66
2022/11/02 07:43:05;;;;;;;12.00;4.28;;;7.60;99.90;;;;;;4982721;28;20035;-66
2022/11/02 07:45:31;;;;;;;7.57;4.18;;;7.50;99.90;;;;;;4996909;28;20488;-65
2022/11/02 07:47:58;;;;;;;9.77;4.47;;;7.50;99.90;;;;;;4988453;28;20050;-66
2022/11/02 07:50:25;;;;;;;10.95;4.65;;;7.60;99.90;;;;;;4986276;28;20108;-65
2022/11/02 07:52:55;;;;;;;8.55;4.57;;;7.60;99.90;;;;;;4990282;28;20038;-68
2022/11/02 07:55:24;;;;;;;9.25;4.40;;;7.80;99.90;;;;;;4994762;28;20034;-66
2022/11/02 07:57:53;;;;;;;11.40;4.55;;;7.90;99.90;;;;;;4986577;28;20044;-67
2022/11/02 08:00:19;;;;;;;8.52;4.07;;;8.00;99.90;;;;;;4975934;28;20040;-66
2022/11/02 08:02:45;;;;;;;8.93;4.75;;;8.10;99.90;;;;;;4978836;28;20467;-65
2022/11/02 08:05:10;;;;;;;7.65;4.60;;;8.30;99.90;;;;;;4990274;28;20049;-67
2022/11/02 08:07:36;;;;;;;7.90;4.82;;;8.30;99.90;;;;;;4994328;28;20116;-66
2022/11/02 08:10:02;;;;;;;7.90;4.57;;;8.40;99.90;;;;;;4989055;28;20018;-67
2022/11/02 08:12:29;;;;;;;9.25;3.78;;;8.50;99.90;;;;;;4990847;28;20053;-68
2022/11/02 08:14:55;;;;;;;7.38;3.90;;;8.70;99.90;;;;;;4991662;28;20117;-69
2022/11/02 08:17:21;;;;;;;8.85;4.13;;;8.90;99.90;;;;;;4987846;28;20034;-68
2022/11/02 08:19:47;;;;;;;7.40;3.83;;;9.00;99.90;;;;;;4989907;28;20047;-68
2022/11/02 08:22:12;;;;;;;13.25;3.50;;;9.20;99.90;;;;;;4989947;28;20347;-68
2022/11/02 08:24:38;;;;;;;9.85;4.22;;;9.40;99.90;;;;;;5000588;28;20064;-68
2022/11/02 08:27:04;;;;;;;9.77;3.30;;;9.70;99.90;;;;;;5000382;28;20037;-68
2022/11/02 08:29:29;;;;;;;12.73;3.75;;;9.80;99.90;;;;;;4971210;28;20105;-67
2022/11/02 08:31:55;;;;;;;11.77;3.30;;;10.00;99.90;;;;;;4980800;28;20034;-69
2022/11/02 08:34:20;;;;;;;6.28;2.70;;;10.10;99.90;;;;;;4996925;28;20795;-68
2022/11/02 08:36:46;;;;;;;10.38;2.85;;;10.20;99.90;;;;;;5005859;28;20048;-68
2022/11/02 08:39:11;;;;;;;11.32;2.58;;;10.30;99.90;;;;;;4970428;28;20026;-68
2022/11/02 08:41:37;;;;;;;8.13;2.42;;;10.40;99.90;;;;;;4984818;28;20049;-67
2022/11/02 08:44:03;;;;;;;11.20;2.42;;;10.50;99.90;;;;;;5009171;28;20046;-69
2022/11/02 08:46:29;;;;;;;10.35;2.75;;;10.60;99.90;;;;;;5009951;28;20050;-68
2022/11/02 08:48:54;;;;;;;6.53;2.50;;;10.70;99.90;;;;;;5005958;28;20069;-69
2022/11/02 08:51:20;;;;;;;8.38;2.90;;;10.80;99.90;;;;;;4994381;28;20105;-69
2022/11/02 08:53:45;;;;;;;14.48;3.10;;;10.80;99.90;;;;;;5009072;28;20545;-68
2022/11/02 08:56:11;;;;;;;13.23;2.80;;;10.80;99.90;;;;;;5004519;28;20033;-68
2022/11/02 08:58:37;;;;;;;11.65;2.85;;;10.90;99.90;;;;;;5008401;28;20352;-68
2022/11/02 09:01:02;;;;;;;7.55;2.47;;;10.90;99.90;;;;;;5007562;28;20026;-69
2022/11/02 09:03:28;;;;;;;10.00;2.38;;;11.00;99.90;;;;;;5003100;28;20475;-68
2022/11/02 09:05:59;;;;;;;9.00;2.30;;;11.00;99.90;;;;;;4989021;28;20352;-68
2022/11/02 09:08:26;;;;;;;17.27;2.92;;;11.10;99.90;;;;;;4989942;28;20042;-68
2022/11/02 09:10:52;;;;;;;10.27;3.90;;;11.20;99.90;;;;;;4989954;28;20475;-68
2022/11/02 09:13:24;;;;;;;10.90;2.83;;;11.30;99.90;;;;;;4989156;28;20026;-68
2022/11/02 09:15:54;;;;;;;25.08;2.72;;;11.40;99.90;;;;;;5003401;28;20052;-69
2022/11/02 09:18:20;;;;;;;;;;;11.50;99.90;;;;;;4986371;28;20041;-68
2022/11/02 09:20:47;;;;;;;13.55;2.85;;;11.60;99.90;;;;;;4970443;28;19906;-69
2022/11/02 09:23:14;;;;;;;5.55;2.47;;;11.70;99.90;;;;;;4969591;28;20173;-71
2022/11/02 09:25:40;;;;;;;14.00;3.05;;;11.80;99.90;;;;;;4970454;28;20041;-69
2022/11/02 09:28:05;;;;;;;7.63;1.92;;;11.80;99.90;;;;;;4990140;28;20026;-68
2022/11/02 09:30:31;;;;;;;8.93;2.00;;;11.90;99.90;;;;;;5009349;28;20036;-68
2022/11/02 09:32:59;;;;;;;10.23;2.38;;;12.00;99.90;;;;;;5008100;28;20026;-70
2022/11/02 09:35:27;;;;;;;8.52;2.28;;;12.00;99.90;;;;;;4970019;28;20105;-69
2022/11/02 09:37:53;;;;;;;12.13;1.80;;;12.00;99.90;;;;;;4971374;28;20031;-69
2022/11/02 09:40:24;;;;;;;11.02;2.15;;;12.00;99.90;;;;;;4988803;28;20019;-68
2022/11/02 09:43:08;;;;;;;10.30;1.92;;;12.10;99.90;;;;;;4989443;28;20097;-68
2022/11/02 09:45:51;;;;;;;14.70;2.10;;;12.10;99.90;;;;;;4989269;28;20061;-69
2022/11/02 09:48:27;;;;;;;11.75;2.05;;;12.10;99.90;;;;;;4991821;28;20026;-68
2022/11/02 09:51:10;;;;;;;10.50;1.80;;;12.20;99.90;;;;;;5008929;28;20034;-67
2022/11/02 09:53:42;;;;;;;7.53;2.05;;;12.20;99.90;;;;;;5009188;28;20045;-66
2022/11/02 09:56:11;;;;;;;9.80;2.00;;;12.20;99.90;;;;;;4984020;28;20506;-69
2022/11/02 09:58:39;;;;;;;9.52;2.22;;;12.10;99.90;;;;;;4989179;28;20061;-68
2022/11/02 10:01:43;;;;;;;10.20;1.80;;;12.10;99.90;;;;;;4988286;28;20551;-68
2022/11/02 10:04:37;;;;;;;9.02;1.92;;;12.20;99.90;;;;;;4987834;28;20042;-67
2022/11/02 10:07:12;;;;;;;12.85;2.00;;;12.30;99.90;;;;;;4974375;28;20046;-70
2022/11/02 10:09:58;;;;;;;8.23;2.17;;;12.40;99.90;;;;;;4973825;28;20031;-67
2022/11/02 10:13:07;;;;;;;11.25;1.83;;;12.60;99.90;;;;;;5004615;28;20038;-69
2022/11/02 10:15:48;;;;;;;12.02;2.10;;;12.70;99.90;;;;;;5000372;28;20050;-69
2022/11/02 10:18:23;;;;;;;11.05;1.92;;;12.70;99.90;;;;;;4992319;28;20045;-69
2022/11/02 10:20:54;;;;;;;9.82;1.95;;;12.70;99.90;;;;;;4993197;28;20462;-69
2022/11/02 10:23:34;;;;;;;8.27;2.38;;;12.70;99.90;;;;;;4992499;28;20034;-68
2022/11/02 10:26:02;;;;;;;8.88;2.03;;;12.60;99.90;;;;;;5011419;28;20037;-67
2022/11/02 10:28:45;;;;;;;11.02;2.00;;;12.60;99.90;;;;;;5012183;28;20072;-69
2022/11/02 10:31:32;;;;;;;10.38;2.10;;;12.50;99.90;;;;;;5011708;28;20030;-68
2022/11/02 10:34:14;;;;;;;4.35;1.67;;;12.40;99.90;;;;;;5010090;28;20402;-68
2022/11/02 10:37:18;;;;;;;12.98;2.10;;;12.40;99.90;;;;;;5012538;28;20471;-68
2022/11/02 10:40:09;;;;;;;6.25;1.95;;;12.40;99.90;;;;;;5012452;28;20036;-69
2022/11/02 10:43:00;;;;;;;;;;;12.50;99.90;;;;;;5009503;28;20473;-69
2022/11/02 10:45:41;;;;;;;9.63;1.80;;;12.50;99.90;;;;;;4999873;28;19921;-68
2022/11/02 10:48:31;;;;;;;6.97;2.00;;;12.50;99.90;;;;;;5011279;28;20037;-69
2022/11/02 10:51:13;;;;;;;10.38;2.03;;;12.50;99.90;;;;;;5012146;28;20046;-68
2022/11/02 10:53:49;;;;;;;9.25;1.95;;;12.50;99.90;;;;;;5012155;28;20180;-69
2022/11/02 10:56:32;;;;;;;8.77;2.42;;;12.50;99.90;;;;;;4993665;28;20057;-69
2022/11/02 10:59:01;;;;;;;8.00;2.35;;;12.60;99.90;;;;;;4991370;28;20046;-69
2022/11/02 11:01:28;;;;;;;7.65;2.30;;;12.60;99.90;;;;;;5008050;28;20029;-67
2022/11/02 11:03:58;;;;;;;7.75;1.88;;;12.50;99.90;;;;;;5011688;28;20030;-69
2022/11/02 11:06:39;;;;;;;9.55;2.08;;;12.60;99.90;;;;;;5008172;28;20193;-69
2022/11/02 11:09:25;;;;;;;8.13;2.00;;;12.70;99.90;;;;;;5010046;28;20115;-68
2022/11/02 11:12:04;;;;;;;9.50;2.17;;;12.70;99.90;;;;;;5001026;28;20111;-68
2022/11/02 11:14:36;;;;;;;9.55;2.30;;;12.80;99.90;;;;;;4970925;28;20047;-69
2022/11/02 11:17:12;;;;;;;7.03;1.92;;;12.90;99.90;;;;;;4987630;28;20475;-68
2022/11/02 11:19:40;;;;;;;11.07;2.45;;;13.00;99.90;;;;;;4990666;28;20053;-69
2022/11/02 11:22:28;;;;;;;14.82;2.42;;;13.10;99.90;;;;;;4988199;28;20100;-69
2022/11/02 11:25:23;;;;;;;10.23;2.03;;;13.10;99.90;;;;;;4972165;28;20530;-69
2022/11/02 11:27:53;;;;;;;9.32;1.88;;;13.20;99.90;;;;;;4996236;28;20112;-68
2022/11/02 11:30:31;;;;;;;14.20;2.13;;;13.20;99.90;;;;;;5010514;28;20029;-69
2022/11/02 11:32:58;;;;;;;10.68;1.63;;;13.10;99.90;;;;;;5011143;28;20403;-69
2022/11/02 11:35:50;;;;;;;10.65;1.60;;;13.10;99.90;;;;;;5003384;28;20026;-69
2022/11/02 11:38:26;;;;;;;8.15;1.90;;;13.10;99.90;;;;;;4990368;28;20046;-68
2022/11/02 11:40:59;;;;;;;10.73;1.90;;;13.10;99.90;;;;;;4991609;28;20117;-68
2022/11/02 11:43:28;;;;;;;6.53;1.95;;;13.20;99.90;;;;;;4990691;28;20132;-68
2022/11/02 11:46:06;;;;;;;16.17;2.05;;;13.30;99.90;;;;;;4997138;28;20058;-69
2022/11/02 11:48:34;;;;;;;14.98;2.50;;;13.20;99.90;;;;;;5010849;28;20112;-69
2022/11/02 11:51:02;;;;;;;10.30;1.75;;;13.10;99.90;;;;;;5010823;28;20506;-69
2022/11/02 11:53:28;;;;;;;9.27;2.33;;;13.10;99.90;;;;;;5003041;28;20026;-69
2022/11/02 11:55:59;;;;;;;5.68;2.10;;;13.10;99.90;;;;;;4990192;28;20041;-69
2022/11/02 11:58:25;;;;;;;;;;;13.20;99.90;;;;;;4990873;28;20033;-68
2022/11/02 12:01:07;;;;;;;10.20;2.00;;;13.40;99.90;;;;;;4991200;28;20363;-69
2022/11/02 12:03:55;;;;;;;16.88;1.75;;;13.40;99.90;;;;;;4990711;28;20043;-69
2022/11/02 12:06:40;;;;;;;12.35;1.40;;;13.20;99.90;;;;;;4988155;28;20502;-69
2022/11/02 12:09:23;;;;;;;9.73;2.00;;;13.20;99.90;;;;;;4990628;28;20088;-69
2022/11/02 12:12:10;;;;;;;12.75;2.33;;;13.30;99.90;;;;;;4991058;28;20026;-68
2022/11/02 12:15:03;;;;;;;4.63;1.70;;;13.20;99.90;;;;;;4990674;28;20150;-69
2022/11/02 12:17:56;;;;;;;12.02;1.92;;;13.30;99.90;;;;;;4983881;28;20036;-69
2022/11/02 12:20:44;;;;;;;7.03;1.98;;;13.40;99.90;;;;;;4984264;28;20399;-68
2022/11/02 12:23:47;;;;;;;11.18;2.00;;;13.60;99.90;;;;;;4981755;28;20041;-69
2022/11/02 12:26:16;;;;;;;11.20;1.67;;;13.70;99.90;;;;;;4982637;28;20044;-68
2022/11/02 12:29:11;;;;;;;9.02;1.80;;;13.90;99.90;;;;;;4970650;28;20031;-69
2022/11/02 12:31:41;;;;;;;9.50;2.08;;;14.20;99.90;;;;;;5007911;28;20044;-68
2022/11/02 12:34:15;;;;;;;15.70;1.88;;;14.70;99.90;;;;;;5007875;28;20029;-69
2022/11/02 12:37:03;;;;;;;7.35;1.65;;;15.30;99.90;;;;;;5002473;28;20037;-68
2022/11/02 12:39:52;;;;;;;7.53;1.60;;;15.40;99.90;;;;;;4989393;28;20120;-69
2022/11/02 12:42:31;;;;;;;8.93;1.80;;;15.50;99.90;;;;;;4989526;28;20041;-68
2022/11/02 12:45:23;;;;;;;11.65;2.35;;;15.90;99.90;;;;;;4990247;28;20096;-67
2022/11/02 12:48:03;;;;;;;14.32;1.83;;;15.90;99.90;;;;;;4988631;28;20046;-69
2022/11/02 12:50:29;;;;;;;;;;;15.70;99.90;;;;;;4987784;28;20266;-68
2022/11/02 12:53:24;;;;;;;17.92;1.70;;;15.70;99.90;;;;;;4989822;28;20367;-68
2022/11/02 12:55:53;;;;;;;7.47;1.95;;;16.00;99.90;;;;;;4988278;28;20125;-68
2022/11/02 12:58:29;;;;;;;9.30;1.48;;;16.00;99.90;;;;;;4987142;28;20077;-69
2022/11/02 13:01:30;;;;;;;8.98;1.75;;;15.80;99.90;;;;;;4987765;28;20342;-70
2022/11/02 13:04:17;;;;;;;10.43;1.73;;;15.90;99.90;;;;;;4979323;28;20144;-69
2022/11/02 13:06:45;;;;;;;8.38;1.73;;;16.00;99.90;;;;;;4988576;28;20482;-69
2022/11/02 13:09:23;;;;;;;6.93;1.60;;;16.00;99.90;;;;;;4989143;28;20193;-71
2022/11/02 13:12:12;;;;;;;8.50;2.03;;;16.20;99.90;;;;;;4986399;28;20588;-68
2022/11/02 13:14:50;;;;;;;9.05;1.88;;;16.20;99.90;;;;;;4987946;28;20043;-69
2022/11/02 13:17:46;;;;;;;4.85;1.85;;;16.00;99.90;;;;;;4984462;28;20117;-71
2022/11/02 13:20:29;;;;;;;7.18;2.33;;;16.10;99.90;;;;;;4984920;28;20073;-69
2022/11/02 13:23:03;;;;;;;7.22;1.60;;;16.60;99.90;;;;;;4986584;28;20534;-68
2022/11/02 13:25:41;;;;;;;7.63;2.10;;;17.10;99.90;;;;;;4989021;28;20398;-70